Time;durP1;ratioP1;P1;durP2;ratioP2;P2;SDS_P1;SDS_P2;PMS_P1;PMS_P2;Temp;Humidity;BMP_temperature;BMP_pressure;BME280_temperature;BME280_humidity;BME280_pressure;Samples;Min_cycle;Max_cycle;Signal;HPM_P1;HPM_P2
2022/10/03 00:01:08;;;;;;;49.90;4.15;;;;;;;17.98;52.67;100533.50;4878693;29;20108;-84
2022/10/03 00:03:58;;;;;;;10.35;1.48;;;;;;;18.02;52.15;100535.66;4878758;29;20040;-82
2022/10/03 00:06:33;;;;;;;6.00;1.77;;;;;;;17.99;52.13;100514.25;4823432;29;20042;-82
2022/10/03 00:09:13;;;;;;;3.60;1.50;;;;;;;18.10;51.83;100527.50;4858931;29;20049;-82
2022/10/03 00:11:54;;;;;;;20.67;3.25;;;;;;;18.15;51.71;100519.63;4877720;29;20048;-82
2022/10/03 00:14:48;;;;;;;5.57;2.03;;;;;;;17.95;51.27;100480.22;4889421;29;20076;-82
2022/10/03 00:17:24;;;;;;;4.30;1.52;;;;;;;18.12;51.37;100513.69;4896237;29;20048;-83
2022/10/03 00:20:01;;;;;;;7.30;1.60;;;;;;;18.17;51.15;100514.84;4897593;29;20124;-82
2022/10/03 00:22:43;;;;;;;32.15;2.97;;;;;;;18.20;51.36;100519.94;4881701;29;20427;-84
2022/10/03 00:25:29;;;;;;;11.70;3.28;;;;;;;18.21;51.54;100516.22;4880138;29;20197;-82
2022/10/03 00:28:23;;;;;;;11.23;2.13;;;;;;;18.24;51.25;100512.28;4878359;29;20041;-82
2022/10/03 00:31:15;;;;;;;24.25;2.03;;;;;;;18.24;51.24;100502.25;4880846;29;20092;-82
2022/10/03 00:34:05;;;;;;;126.13;11.30;;;;;;;18.26;51.45;100502.91;4909173;29;20522;-82
2022/10/03 00:37:13;;;;;;;20.63;2.47;;;;;;;18.24;51.45;100502.25;4896254;29;20079;-82
2022/10/03 00:39:42;;;;;;;10.35;1.65;;;;;;;18.17;51.21;100484.91;4859218;29;20048;-82
2022/10/03 00:42:16;;;;;;;7.75;1.58;;;;;;;18.26;51.33;100494.75;4858813;29;20042;-82
2022/10/03 00:45:06;;;;;;;4.95;1.92;;;;;;;18.23;51.26;100478.75;4895750;29;20053;-83
2022/10/03 00:47:43;;;;;;;6.05;1.45;;;;;;;18.00;51.16;100445.19;4900358;29;20033;-82
2022/10/03 00:50:39;;;;;;;12.32;2.45;;;;;;;18.30;51.30;100485.19;4900788;29;20080;-83
2022/10/03 00:53:26;;;;;;;3.13;1.60;;;;;;;18.32;51.14;100491.31;4916501;29;20036;-83
2022/10/03 00:56:05;;;;;;;11.38;1.55;;;;;;;18.33;51.11;100486.72;4871454;29;20044;-82
2022/10/03 00:59:08;;;;;;;14.27;1.80;;;;;;;18.31;50.92;100486.91;4895393;29;20571;-83
2022/10/03 01:01:48;;;;;;;2.80;1.40;;;;;;;18.08;51.32;100439.69;4896643;29;20488;-82
2022/10/03 01:04:46;;;;;;;8.32;1.52;;;;;;;18.11;51.15;100455.69;4897296;29;20055;-82
2022/10/03 01:07:41;;;;;;;128.27;7.32;;;;;;;18.28;51.39;100484.53;4897638;29;20084;-82
2022/10/03 01:10:20;;;;;;;10.73;2.33;;;;;;;18.23;51.25;100484.19;4898138;29;20040;-83
2022/10/03 01:13:07;;;;;;;5.97;1.70;;;;;;;18.15;51.33;100475.22;4898577;29;20035;-82
2022/10/03 01:15:51;;;;;;;2.88;1.67;;;;;;;18.22;51.53;100493.41;4898844;29;20097;-84
2022/10/03 01:18:16;;;;;;;9.07;2.05;;;;;;;18.06;51.61;100460.81;4937517;29;20024;-82
2022/10/03 01:21:01;;;;;;;4.90;1.70;;;;;;;18.21;51.57;100483.53;4936687;29;20463;-82
2022/10/03 01:23:51;;;;;;;4.32;1.60;;;;;;;18.10;51.57;100458.59;4942561;28;20534;-82
2022/10/03 01:26:41;;;;;;;2.30;1.30;;;;;;;18.22;51.56;100481.66;4938354;28;20536;-82
2022/10/03 01:32:07;;;;;;;4.30;1.83;;;;;;;18.11;51.55;100469.28;4954904;28;20037;-82
2022/10/03 01:35:06;;;;;;;20.70;2.10;;;;;;;17.94;51.90;100435.03;4957092;28;20503;-82
2022/10/03 01:38:00;;;;;;;5.75;1.50;;;;;;;18.17;51.66;100474.03;4971323;28;20039;-82
2022/10/03 01:40:42;;;;;;;4.55;1.95;;;;;;;18.17;51.73;100475.88;4966577;28;20070;-82
2022/10/03 01:43:20;;;;;;;4.40;1.73;;;;;;;18.11;51.90;100477.44;4952724;28;20372;-82
2022/10/03 01:46:20;;;;;;;3.72;2.20;;;;;;;18.07;51.76;100470.66;4935831;29;20036;-83
2022/10/03 01:48:58;;;;;;;2.00;1.52;;;;;;;18.05;52.11;100472.72;4896140;29;20044;-81
2022/10/03 01:51:33;;;;;;;1.45;1.20;;;;;;;17.99;52.13;100459.81;4895579;29;20037;-82
2022/10/03 01:53:59;;;;;;;2.70;1.77;;;;;;;18.00;52.18;100460.66;4905709;29;20036;-81
2022/10/03 01:56:24;;;;;;;6.28;1.70;;;;;;;17.98;52.01;100458.09;4915618;29;20493;-81
2022/10/03 01:58:59;;;;;;;7.13;1.50;;;;;;;17.97;52.24;100456.44;4913568;29;20051;-81
2022/10/03 02:01:37;;;;;;;5.80;1.48;;;;;;;17.97;52.52;100451.00;4913882;29;20067;-81
2022/10/03 02:04:16;;;;;;;2.03;1.35;;;;;;;17.86;52.43;100435.03;4876411;29;20154;-82
2022/10/03 02:06:44;;;;;;;6.38;1.67;;;;;;;17.92;52.52;100437.03;4876347;29;20441;-82
2022/10/03 02:09:28;;;;;;;12.65;1.70;;;;;;;17.80;52.41;100427.56;4879070;29;20048;-83
2022/10/03 02:11:58;;;;;;;6.53;1.50;;;;;;;17.86;52.63;100440.47;4894479;29;20051;-81
2022/10/03 02:14:52;;;;;;;27.60;3.03;;;;;;;17.85;52.74;100445.09;4894335;29;20044;-81
2022/10/03 02:17:44;;;;;;;23.73;3.58;;;;;;;17.83;52.66;100446.25;4882908;29;20049;-82
2022/10/03 02:20:25;;;;;;;147.20;14.13;;;;;;;17.73;52.76;100451.94;4877081;29;20630;-82
2022/10/03 02:22:56;;;;;;;11.18;1.92;;;;;;;17.64;52.99;100443.97;4875998;29;20049;-82
2022/10/03 02:25:57;;;;;;;5.75;1.33;;;;;;;17.63;53.06;100453.16;4898647;29;20044;-82
2022/10/03 02:28:49;;;;;;;3.90;1.38;;;;;;;17.28;53.31;100400.00;4912989;29;20036;-84
2022/10/03 02:31:34;;;;;;;20.95;2.08;;;;;;;17.59;53.55;100468.09;4913553;29;20115;-82
2022/10/03 02:34:24;;;;;;;15.88;2.05;;;;;;;17.49;53.91;100456.56;4896767;29;20091;-82
2022/10/03 02:37:12;;;;;;;11.68;2.03;;;;;;;17.45;54.07;100449.75;4934191;29;20031;-82
2022/10/03 02:39:55;;;;;;;6.25;1.83;;;;;;;17.40;54.08;100453.84;4934038;29;20038;-83
2022/10/03 02:42:36;;;;;;;5.90;1.45;;;;;;;17.40;54.31;100459.28;4943209;28;20065;-82
2022/10/03 02:45:59;;;;;;;4.30;1.95;;;;;;;17.29;54.37;100458.78;4936168;29;20062;-81
2022/10/03 02:48:46;;;;;;;4.50;1.73;;;;;;;17.32;54.61;100472.91;4894210;29;20473;-83
2022/10/03 02:51:58;;;;;;;7.95;1.90;;;;;;;17.10;54.79;100446.41;4894836;29;20051;-81
2022/10/03 02:54:38;;;;;;;8.25;1.90;;;;;;;17.09;55.28;100485.50;4894084;29;20052;-82
2022/10/03 02:57:31;;;;;;;5.22;1.85;;;;;;;17.15;55.36;100486.69;4893913;29;20476;-83
2022/10/03 03:00:19;;;;;;;7.82;1.77;;;;;;;17.08;55.03;100486.50;4893587;29;20519;-82
2022/10/03 03:03:09;;;;;;;36.00;3.33;;;;;;;17.11;55.42;100497.03;4896067;29;20071;-81
2022/10/03 03:05:56;;;;;;;80.70;8.90;;;;;;;17.05;55.33;100492.28;4895473;29;20056;-82
2022/10/03 03:08:42;;;;;;;12.77;2.63;;;;;;;17.01;55.28;100496.34;4895759;29;20047;-83
2022/10/03 03:11:47;;;;;;;3.55;1.48;;;;;;;16.94;55.51;100489.88;4896353;29;20092;-83
2022/10/03 03:14:39;;;;;;;9.32;1.60;;;;;;;16.92;55.59;100486.50;4841424;29;20091;-82
2022/10/03 03:17:26;;;;;;;73.05;6.63;;;;;;;16.84;55.64;100484.63;4842060;29;20045;-82
2022/10/03 03:20:19;;;;;;;8.35;2.10;;;;;;;16.81;55.73;100475.97;4887969;29;20524;-82
2022/10/03 03:23:02;;;;;;;2.67;1.20;;;;;;;16.39;55.48;100407.31;4896868;29;20100;-83
2022/10/03 03:25:52;;;;;;;6.97;1.60;;;;;;;16.73;55.67;100476.78;4878619;29;20064;-82
2022/10/03 03:28:39;;;;;;;5.20;1.85;;;;;;;16.63;55.86;100483.41;4896179;29;20041;-82
2022/10/03 03:31:20;;;;;;;4.55;2.15;;;;;;;16.54;56.28;100482.56;4896599;29;20068;-81
2022/10/03 03:34:21;;;;;;;55.13;5.47;;;;;;;16.34;56.21;100443.94;4907224;29;20064;-82
2022/10/03 03:36:46;;;;;;;14.63;2.75;;;;;;;16.47;56.26;100477.91;4855640;29;20057;-82
2022/10/03 03:39:32;;;;;;;7.57;3.00;;;;;;;16.38;56.48;100468.91;4845971;29;20052;-83
2022/10/03 03:42:21;;;;;;;7.88;3.17;;;;;;;16.35;56.71;100463.81;4838420;29;20042;-84
2022/10/03 03:45:23;;;;;;;9.27;2.67;;;;;;;16.28;57.08;100466.34;4840434;29;20042;-86
2022/10/03 03:47:57;;;;;;;19.73;3.17;;;;;;;16.22;56.90;100467.00;4842997;29;20090;-83
2022/10/03 03:50:44;;;;;;;19.20;2.97;;;;;;;16.00;57.00;100428.75;4849815;29;20309;-85
2022/10/03 03:53:19;;;;;;;25.15;4.40;;;;;;;16.20;57.25;100457.31;4865256;29;20557;-83
2022/10/03 03:55:56;;;;;;;79.63;8.30;;;;;;;16.24;57.25;100448.66;4877337;29;20112;-83
2022/10/03 03:58:53;;;;;;;12.13;4.07;;;;;;;16.15;57.04;100443.38;4877954;29;20543;-84
2022/10/03 04:01:25;;;;;;;17.73;3.88;;;;;;;16.12;57.35;100455.41;4892289;29;20052;-81
2022/10/03 04:04:21;;;;;;;5.38;3.17;;;;;;;16.12;57.09;100447.28;4892697;29;20068;-84
2022/10/03 04:07:06;;;;;;;29.58;4.40;;;;;;;15.98;57.31;100423.50;4892874;29;20037;-83
2022/10/03 04:09:53;;;;;;;33.05;4.65;;;;;;;16.01;57.53;100436.72;4892946;29;20033;-84
2022/10/03 04:12:33;;;;;;;23.33;4.90;;;;;;;15.95;57.83;100436.53;4900117;28;20029;-83
2022/10/03 04:15:47;;;;;;;26.13;3.67;;;;;;;15.95;57.93;100436.53;4947747;28;20036;-83
2022/10/03 04:18:58;;;;;;;23.13;4.38;;;;;;;15.96;58.04;100430.94;4897771;29;20040;-85
2022/10/03 04:21:57;;;;;;;13.50;3.35;;;;;;;15.96;58.13;100421.97;4900037;29;20036;-84
2022/10/03 04:24:23;;;;;;;34.03;6.68;;;;;;;15.92;58.01;100428.72;4900232;29;20035;-85
2022/10/03 04:27:42;;;;;;;21.02;5.05;;;;;;;15.88;58.41;100428.19;4900727;29;20032;-85
2022/10/03 04:30:30;;;;;;;50.45;7.30;;;;;;;15.87;58.44;100434.63;4837323;29;20057;-84
2022/10/03 04:33:28;;;;;;;28.30;4.72;;;;;;;15.83;58.55;100432.41;4837606;29;20730;-81
2022/10/03 04:36:31;;;;;;;16.75;4.15;;;;;;;15.81;58.41;100432.56;4839239;29;20453;-81
2022/10/03 04:39:21;;;;;;;24.70;4.20;;;;;;;15.84;58.50;100428.72;4839338;29;20057;-80
2022/10/03 04:41:52;;;;;;;66.32;5.63;;;;;;;15.82;58.19;100436.13;4838916;29;20049;-80
2022/10/03 04:44:42;;;;;;;65.72;6.53;;;;;;;15.83;58.43;100422.44;4839874;29;20046;-81
2022/10/03 04:47:19;;;;;;;40.30;5.18;;;;;;;15.82;58.26;100419.88;4839448;29;20029;-77
2022/10/03 04:49:55;;;;;;;13.63;3.50;;;;;;;15.93;57.88;100441.28;4844855;29;20030;-82
2022/10/03 04:52:38;;;;;;;30.55;5.18;;;;;;;15.94;58.33;100424.84;4843945;29;20041;-81
2022/10/03 04:55:25;;;;;;;17.42;3.17;;;;;;;15.93;58.30;100417.69;4881755;29;20045;-82
2022/10/03 04:57:59;;;;;;;32.38;4.53;;;;;;;15.93;58.01;100406.84;4893701;29;20063;-83
2022/10/03 05:00:32;;;;;;;14.90;3.17;;;;;;;16.01;57.75;100409.59;4884263;29;20057;-85
2022/10/03 05:03:03;;;;;;;;;;;;;;;16.07;57.65;100418.94;4869447;29;20169;-79
2022/10/03 05:05:39;;;;;;;42.40;3.88;;;;;;;15.90;58.14;100379.22;4933495;29;19915;-76
2022/10/03 05:08:33;;;;;;;52.03;5.72;;;;;;;16.10;57.65;100413.19;4934964;29;20031;-77
2022/10/03 05:11:08;;;;;;;38.80;3.83;;;;;;;16.10;58.08;100402.34;4937431;28;20032;-76
2022/10/03 05:14:02;;;;;;;28.05;3.17;;;;;;;15.93;58.05;100368.88;4936341;28;20135;-76
2022/10/03 05:16:45;;;;;;;35.60;4.10;;;;;;;16.19;57.96;100385.91;4967010;28;20035;-78
2022/10/03 05:19:46;;;;;;;79.03;6.30;;;;;;;16.36;57.56;100402.22;4973082;28;20027;-77
2022/10/03 05:22:40;;;;;;;15.75;3.90;;;;;;;16.45;56.84;100398.50;4966439;28;20498;-77
2022/10/03 05:25:21;;;;;;;33.88;5.53;;;;;;;16.53;56.96;100399.38;4894430;29;20106;-76
2022/10/03 05:27:59;;;;;;;41.92;5.20;;;;;;;16.60;56.77;100418.59;4894387;29;20037;-76
2022/10/03 05:30:48;;;;;;;33.20;5.97;;;;;;;16.66;56.50;100417.91;4893942;29;20440;-76
2022/10/03 05:33:30;;;;;;;167.02;12.15;;;;;;;16.79;56.45;100437.25;4880889;29;20059;-77
2022/10/03 05:36:11;;;;;;;16.55;4.50;;;;;;;16.72;56.12;100441.66;4875764;29;20074;-76
2022/10/03 05:39:17;;;;;;;32.42;6.13;;;;;;;16.78;56.13;100447.28;4875620;29;20067;-76
2022/10/03 05:41:53;;;;;;;24.55;4.97;;;;;;;16.80;56.20;100445.22;4890023;29;20056;-79
2022/10/03 05:44:36;;;;;;;136.23;11.65;;;;;;;16.87;56.05;100445.41;4895052;29;20120;-85
2022/10/03 05:50:10;;;;;;;35.35;5.55;;;;;;;17.00;56.13;100439.47;4892353;29;19927;-77
2022/10/03 05:52:49;;;;;;;21.55;4.75;;;;;;;17.08;56.08;100437.59;4893182;29;20219;-84
2022/10/03 05:55:39;;;;;;;14.18;4.13;;;;;;;16.92;55.75;100399.56;4877597;29;20076;-80
2022/10/03 05:58:11;;;;;;;122.78;10.45;;;;;;;17.25;55.30;100449.28;4893653;29;20407;-83
2022/10/03 06:01:14;;;;;;;15.90;5.80;;;;;;;17.28;55.23;100449.78;4887057;29;20048;-79
2022/10/03 06:03:54;;;;;;;105.10;9.00;;;;;;;17.15;55.16;100413.28;4934115;29;20023;-81
2022/10/03 06:06:44;;;;;;;14.77;3.63;;;;;;;17.43;55.00;100442.63;4935568;29;20547;-84
2022/10/03 06:09:12;;;;;;;27.60;3.83;;;;;;;17.50;54.83;100458.22;4933170;29;20034;-81
2022/10/03 06:11:54;;;;;;;102.95;8.13;;;;;;;17.50;54.89;100458.22;4930310;28;20475;-80
2022/10/03 06:14:39;;;;;;;;;;;;;;;17.57;54.60;100454.69;4936202;29;20028;-80
2022/10/03 06:17:20;;;;;;;12.55;3.13;;;;;;;17.47;54.61;100445.00;4951079;29;19911;-79
2022/10/03 06:20:22;;;;;;;15.95;4.15;;;;;;;17.62;54.68;100457.72;4937446;29;20035;-80
2022/10/03 06:23:21;;;;;;;18.77;3.47;;;;;;;17.83;54.31;100460.72;4877078;29;20045;-83
2022/10/03 06:26:01;;;;;;;42.15;3.92;;;;;;;18.00;53.88;100453.34;4874421;29;20025;-80
2022/10/03 06:28:29;;;;;;;11.30;4.20;;;;;;;18.12;53.67;100453.81;4874933;29;20525;-81
2022/10/03 06:31:04;;;;;;;12.27;4.07;;;;;;;18.06;53.04;100411.81;4873351;29;20604;-82
2022/10/03 06:33:29;;;;;;;11.00;4.22;;;;;;;18.28;52.81;100445.56;4918722;29;20508;-83
2022/10/03 06:36:17;;;;;;;7.50;2.58;;;;;;;18.37;52.63;100458.97;4903391;29;20119;-82
2022/10/03 06:38:52;;;;;;;8.13;2.88;;;;;;;18.43;52.19;100452.78;4925127;29;20494;-90
2022/10/03 06:41:44;;;;;;;12.52;2.97;;;;;;;18.49;51.63;100459.44;4898033;29;20033;-84
2022/10/03 06:44:28;;;;;;;;;;;;;;;18.63;51.03;100452.34;4899683;29;20044;-86
2022/10/03 06:47:22;;;;;;;45.55;4.65;;;;;;;18.75;50.84;100461.78;4876980;29;20010;-83
2022/10/03 06:49:47;;;;;;;9.60;2.20;;;;;;;18.87;50.75;100461.19;4878053;29;20053;-83
2022/10/03 06:52:37;;;;;;;11.63;2.80;;;;;;;19.01;50.24;100456.81;4905805;29;20048;-85
2022/10/03 06:55:09;;;;;;;15.77;2.58;;;;;;;18.90;50.13;100427.25;4893952;29;20623;-82
2022/10/03 06:57:59;;;;;;;16.00;3.03;;;;;;;19.26;49.57;100449.28;4845149;29;20104;-82
2022/10/03 07:00:55;;;;;;;20.90;3.78;;;;;;;19.40;49.30;100449.34;4936836;28;20074;-82
2022/10/03 07:03:36;;;;;;;9.98;2.20;;;;;;;19.37;48.06;100418.81;4951364;28;20046;-80
2022/10/03 07:06:32;;;;;;;10.55;3.08;;;;;;;19.65;48.18;100432.69;4951561;28;20031;-81
2022/10/03 07:09:31;;;;;;;18.75;2.13;;;;;;;19.73;47.87;100433.44;4928087;29;20411;-82
2022/10/03 07:12:24;;;;;;;5.88;1.65;;;;;;;19.89;47.73;100435.13;4949471;28;20031;-82
2022/10/03 07:14:56;;;;;;;16.08;2.95;;;;;;;19.95;47.48;100434.38;4943118;28;20044;-78
2022/10/03 07:17:33;;;;;;;10.43;3.30;;;;;;;19.93;47.12;100431.84;4936932;28;20036;-78
2022/10/03 07:20:10;;;;;;;17.48;3.00;;;;;;;20.04;46.46;100438.69;4931479;29;20456;-79
2022/10/03 07:22:48;;;;;;;18.40;2.58;;;;;;;19.82;45.93;100415.06;4932005;29;20039;-78
2022/10/03 07:25:25;;;;;;;16.35;3.00;;;;;;;19.84;46.06;100448.50;4931300;29;20032;-77
2022/10/03 07:27:53;;;;;;;18.85;2.63;;;;;;;19.78;46.73;100441.94;4939139;28;20450;-77
2022/10/03 07:30:24;;;;;;;15.10;3.05;;;;;;;19.72;47.02;100430.91;4950670;28;20035;-77
2022/10/03 07:33:25;;;;;;;14.50;3.45;;;;;;;19.82;46.65;100445.09;4949232;28;20063;-77
2022/10/03 07:39:21;;;;;;;6.28;2.42;;;;;;;19.77;46.72;100436.66;4947429;28;20058;-78
2022/10/03 07:41:59;;;;;;;9.02;2.50;;;;;;;19.77;46.73;100428.47;4962246;28;20035;-78
2022/10/03 07:44:58;;;;;;;9.90;2.30;;;;;;;19.80;46.46;100430.81;4952012;28;20027;-78
2022/10/03 07:47:58;;;;;;;8.75;1.83;;;;;;;19.82;46.54;100423.25;4938452;28;20043;-79
2022/10/03 07:50:49;;;;;;;5.40;2.20;;;;;;;19.80;46.61;100425.34;4950730;28;20039;-78
2022/10/03 07:53:51;;;;;;;6.13;2.30;;;;;;;19.91;46.66;100422.97;4934254;29;20034;-77
2022/10/03 07:56:41;;;;;;;4.35;1.73;;;;;;;19.71;46.55;100380.09;4947275;28;20034;-78
2022/10/03 07:59:28;;;;;;;28.15;2.70;;;;;;;19.92;46.81;100412.91;4949952;28;20054;-78
2022/10/03 08:02:18;;;;;;;14.27;1.95;;;;;;;19.98;46.75;100412.16;4950528;28;20045;-77
2022/10/03 08:05:13;;;;;;;14.48;2.92;;;;;;;19.97;46.71;100407.72;4949096;28;20028;-79
2022/10/03 08:08:02;;;;;;;15.00;3.20;;;;;;;20.01;46.60;100411.78;4946989;28;20035;-79
2022/10/03 08:10:55;;;;;;;51.35;4.45;;;;;;;19.98;46.71;100398.50;4951913;28;20091;-79
2022/10/03 08:13:40;;;;;;;;;;;;;;;20.01;46.26;100393.50;4954961;28;20384;-78
2022/10/03 08:16:44;;;;;;;13.75;2.38;;;;;;;20.01;46.57;100373.53;4954179;28;19914;-77
2022/10/03 08:19:28;;;;;;;14.90;2.30;;;;;;;19.99;46.46;100375.63;4953771;28;20775;-77
2022/10/03 08:22:30;;;;;;;87.45;6.68;;;;;;;20.11;46.60;100374.09;4954223;28;20034;-78
2022/10/03 08:25:17;;;;;;;54.70;5.18;;;;;;;19.96;45.92;100337.78;4951685;28;20106;-78
2022/10/03 08:28:04;;;;;;;13.38;2.00;;;;;;;20.13;45.48;100369.28;4919117;28;20463;-83
2022/10/03 08:31:01;;;;;;;11.90;2.72;;;;;;;20.14;45.63;100368.25;4936683;29;20028;-85
2022/10/03 08:33:50;;;;;;;73.32;6.28;;;;;;;20.10;45.56;100353.28;4936472;29;20083;-82
2022/10/03 08:37:03;;;;;;;28.65;2.85;;;;;;;20.04;45.58;100340.41;4935732;29;20127;-90
2022/10/03 08:39:47;;;;;;;40.60;3.85;;;;;;;20.10;45.96;100350.53;4896101;29;20052;-83
2022/10/03 08:42:31;;;;;;;21.00;2.70;;;;;;;20.13;46.17;100352.91;4901020;29;20048;-79
2022/10/03 08:45:09;;;;;;;17.52;2.70;;;;;;;20.18;46.03;100364.09;4899313;29;20071;-79
2022/10/03 08:48:02;;;;;;;11.88;3.03;;;;;;;20.26;46.05;100368.63;4912798;29;20092;-81
2022/10/03 08:50:30;;;;;;;23.52;3.15;;;;;;;20.32;45.80;100362.38;4926022;29;20095;-83
2022/10/03 08:53:17;;;;;;;8.90;2.72;;;;;;;20.45;45.46;100359.78;4922148;29;20312;-86
2022/10/03 08:55:51;;;;;;;9.80;2.05;;;;;;;20.42;45.46;100366.50;4920771;29;20043;-89
2022/10/03 08:58:31;;;;;;;15.00;2.08;;;;;;;20.36;45.39;100370.00;4932764;29;20107;-87
2022/10/03 09:01:28;;;;;;;9.20;2.13;;;;;;;20.39;45.34;100372.34;4930233;29;20036;-82
2022/10/03 09:04:30;;;;;;;9.55;2.60;;;;;;;20.45;45.57;100379.75;4923827;29;20044;-82
2022/10/03 09:07:33;;;;;;;13.70;2.97;;;;;;;20.42;45.68;100377.41;4912460;29;20044;-80
2022/10/03 09:10:26;;;;;;;10.77;2.22;;;;;;;20.48;45.69;100387.56;4909172;29;20036;-82
2022/10/03 09:13:25;;;;;;;8.02;2.03;;;;;;;20.47;45.54;100368.63;4895697;29;20084;-85
2022/10/03 09:16:02;;;;;;;10.13;2.13;;;;;;;20.47;45.49;100379.56;4921000;28;20048;-86
2022/10/03 09:19:15;;;;;;;11.75;2.30;;;;;;;20.63;45.45;100396.56;4949852;28;20035;-84
2022/10/03 09:22:35;;;;;;;10.57;2.40;;;;;;;20.62;45.63;100402.19;4889641;29;20040;-83
2022/10/03 09:25:38;;;;;;;12.00;2.35;;;;;;;20.59;45.78;100400.69;4839561;29;20038;-88
2022/10/03 09:28:22;;;;;;;10.10;2.58;;;;;;;20.67;45.66;100401.63;4835066;29;20038;-82
2022/10/03 09:30:53;;;;;;;13.05;2.22;;;;;;;20.60;45.97;100396.94;4838091;29;20042;-78
2022/10/03 09:33:43;;;;;;;12.05;1.95;;;;;;;20.56;46.10;100400.25;4839048;29;20081;-84
2022/10/03 09:36:23;;;;;;;10.02;2.10;;;;;;;20.38;46.60;100403.44;4838369;29;20037;-84
2022/10/03 09:39:02;;;;;;;9.02;2.15;;;;;;;20.33;47.49;100405.91;4837217;29;20136;-78
2022/10/03 09:41:30;;;;;;;19.55;2.20;;;;;;;20.23;47.40;100413.53;4838044;29;20044;-78
2022/10/03 09:44:16;;;;;;;12.63;2.20;;;;;;;19.85;47.93;100369.16;4837905;29;20065;-80
2022/10/03 09:50:09;;;;;;;12.18;3.40;;;;;;;19.74;50.48;100407.00;4838134;29;20049;-81
2022/10/03 09:52:55;;;;;;;30.80;6.40;;;;;;;19.67;52.14;100419.69;4837742;29;20130;-78
2022/10/03 09:55:29;;;;;;;19.85;3.33;;;;;;;19.59;53.00;100417.06;4837682;29;20038;-80
2022/10/03 09:58:36;;;;;;;15.80;3.20;;;;;;;19.45;54.95;100432.38;4871061;29;20049;-78
2022/10/03 10:01:29;;;;;;;9.43;2.13;;;;;;;19.31;55.91;100431.31;4947761;28;20111;-80
2022/10/03 10:04:13;;;;;;;14.52;2.20;;;;;;;19.10;57.28;100427.59;4933660;29;20040;-80
2022/10/03 10:07:00;;;;;;;30.65;5.13;;;;;;;18.67;58.70;100430.00;4934321;29;20036;-80
2022/10/03 10:09:48;;;;;;;9.93;2.85;;;;;;;18.15;61.61;100427.09;4933742;29;20114;-82
2022/10/03 10:13:02;;;;;;;6.60;2.40;;;;;;;17.82;63.01;100431.00;4941527;28;20491;-82
2022/10/03 10:16:01;;;;;;;7.38;2.47;;;;;;;17.60;65.36;100420.84;4876003;29;20136;-81
2022/10/03 10:19:01;;;;;;;8.98;3.30;;;;;;;17.30;66.57;100415.16;4903401;29;20075;-83
2022/10/03 10:21:55;;;;;;;12.38;2.00;;;;;;;17.16;66.74;100431.28;4883864;29;20044;-82
2022/10/03 10:24:52;;;;;;;4.60;2.40;;;;;;;16.98;67.71;100420.59;4851737;29;20076;-78
2022/10/03 10:27:42;;;;;;;8.43;2.40;;;;;;;16.96;68.92;100430.81;4838460;29;20445;-84
2022/10/03 10:30:38;;;;;;;23.98;3.67;;;;;;;16.22;70.16;100328.59;4845611;29;20534;-83
2022/10/03 10:33:13;;;;;;;339.15;39.00;;;;;;;16.77;71.42;100425.72;4844366;29;20065;-85
2022/10/03 10:36:12;;;;;;;213.55;17.02;;;;;;;16.71;72.14;100419.09;4839209;29;20046;-83
2022/10/03 10:38:44;;;;;;;25.75;4.00;;;;;;;16.58;72.66;100423.31;4839395;29;20046;-82
2022/10/03 10:41:43;;;;;;;451.88;54.67;;;;;;;16.50;73.69;100421.41;4832139;29;20498;-80
2022/10/03 10:44:46;;;;;;;72.78;10.18;;;;;;;16.64;74.57;100422.63;4818448;29;20134;-82
2022/10/03 10:47:32;;;;;;;15.07;3.20;;;;;;;16.60;74.94;100388.72;4817972;29;20555;-86
2022/10/03 10:50:28;;;;;;;14.68;4.30;;;;;;;16.84;74.38;100402.28;4818472;29;20038;-82
2022/10/03 10:53:36;;;;;;;13.57;2.95;;;;;;;16.91;74.04;100406.00;4837430;29;20877;-82
2022/10/03 10:56:14;;;;;;;34.30;4.28;;;;;;;16.95;73.96;100407.38;4838003;29;20033;-81
2022/10/03 10:58:43;;;;;;;5.07;2.78;;;;;;;17.04;74.16;100402.75;4861140;29;20120;-86
2022/10/03 11:01:17;;;;;;;7.30;2.67;;;;;;;17.09;74.41;100395.81;4899579;29;20050;-85
2022/10/03 11:04:10;;;;;;;6.80;2.65;;;;;;;17.27;74.54;100399.19;4917233;29;20034;-85
2022/10/03 11:06:40;;;;;;;13.95;3.50;;;;;;;17.48;74.13;100389.59;4933632;29;20074;-85
2022/10/03 11:09:37;;;;;;;9.73;4.05;;;;;;;17.40;74.23;100366.84;4934050;29;20031;-91
2022/10/03 11:12:24;;;;;;;8.13;3.30;;;;;;;17.64;73.17;100395.88;4943424;28;20043;-80
2022/10/03 11:15:26;;;;;;;13.82;3.97;;;;;;;17.35;72.04;100338.47;4950951;28;20184;-84
2022/10/03 11:18:24;;;;;;;15.90;3.63;;;;;;;17.68;72.24;100380.03;4951232;28;20414;-83
2022/10/03 11:21:13;;;;;;;14.35;4.15;;;;;;;17.75;72.26;100381.03;4950470;28;20042;-79
2022/10/03 11:23:38;;;;;;;14.05;3.83;;;;;;;17.79;72.28;100377.78;4872177;29;20494;-79
2022/10/03 11:26:18;;;;;;;4.75;3.22;;;;;;;17.78;71.79;100377.94;4873314;29;20153;-78
2022/10/03 11:29:12;;;;;;;10.10;4.28;;;;;;;17.87;72.23;100387.75;4884806;29;20112;-81
2022/10/03 11:31:37;;;;;;;10.80;3.47;;;;;;;17.86;71.94;100378.75;4906073;29;20059;-81
2022/10/03 11:34:30;;;;;;;12.48;4.03;;;;;;;17.91;72.29;100386.38;4888762;29;20061;-77
2022/10/03 11:37:31;;;;;;;11.82;3.83;;;;;;;17.82;72.56;100360.25;4884496;29;20052;-82
2022/10/03 11:40:15;;;;;;;4.35;3.38;;;;;;;17.99;72.46;100375.44;4882469;29;20181;-82
2022/10/03 11:42:56;;;;;;;9.20;3.85;;;;;;;18.00;72.33;100358.09;4889263;29;20063;-80
2022/10/03 11:45:52;;;;;;;10.32;3.85;;;;;;;18.18;72.53;100366.00;4887556;29;20044;-84
2022/10/03 11:48:26;;;;;;;9.02;4.55;;;;;;;17.88;71.71;100288.78;4893302;29;20524;-82
2022/10/03 11:50:59;;;;;;;6.63;3.35;;;;;;;18.39;70.91;100358.84;4894399;29;20555;-81
2022/10/03 11:53:43;;;;;;;7.82;3.72;;;;;;;18.43;70.85;100364.81;4896235;29;20100;-84
2022/10/03 11:56:26;;;;;;;6.68;3.38;;;;;;;18.24;71.43;100333.44;4891915;29;20112;-77
2022/10/03 11:58:57;;;;;;;8.10;3.28;;;;;;;18.49;72.02;100345.03;4891571;29;20095;-77
2022/10/03 12:01:32;;;;;;;8.00;3.83;;;;;;;18.62;71.24;100347.16;4923965;29;20036;-78
2022/10/03 12:04:55;;;;;;;10.65;3.35;;;;;;;18.60;70.97;100355.50;4931066;29;20415;-77
2022/10/03 12:10:44;;;;;;;15.80;4.38;;;;;;;18.50;70.92;100338.53;4892012;29;20051;-78
2022/10/03 12:13:16;;;;;;;9.70;3.47;;;;;;;18.56;71.18;100328.81;4890332;29;20607;-78
2022/10/03 12:15:47;;;;;;;9.18;3.20;;;;;;;18.44;69.96;100291.06;4890659;29;20071;-78
2022/10/03 12:18:16;;;;;;;7.38;2.47;;;;;;;18.86;69.72;100355.09;4890376;29;20186;-79
2022/10/03 12:21:06;;;;;;;10.55;3.17;;;;;;;18.89;68.42;100360.19;4890596;29;20036;-78
2022/10/03 12:23:32;;;;;;;9.80;3.70;;;;;;;18.88;67.99;100363.94;4891033;29;20044;-80
2022/10/03 12:26:02;;;;;;;10.25;2.80;;;;;;;18.23;67.67;100250.06;4890745;29;20044;-80
2022/10/03 12:28:43;;;;;;;6.25;2.42;;;;;;;18.97;67.74;100362.81;4892314;29;20111;-79
2022/10/03 12:31:38;;;;;;;4.03;2.20;;;;;;;19.02;67.55;100349.47;4891810;29;20179;-79
2022/10/03 12:34:31;;;;;;;12.15;3.15;;;;;;;19.00;67.20;100336.03;4818949;29;20049;-77
2022/10/03 12:36:57;;;;;;;;;;;;;;;19.04;66.70;100350.16;4836272;29;20818;-79
2022/10/03 12:40:09;;;;;;;5.63;2.22;;;;;;;18.86;66.61;100350.50;4872003;29;19918;-77
2022/10/03 12:42:41;;;;;;;16.17;5.22;;;;;;;18.83;65.57;100347.28;4834433;29;20046;-80
2022/10/03 12:45:32;;;;;;;11.20;2.28;;;;;;;18.77;65.30;100323.50;4840549;29;20041;-77
2022/10/03 12:48:16;;;;;;;13.10;2.40;;;;;;;19.00;64.40;100351.53;4853206;29;20498;-80
2022/10/03 12:51:14;;;;;;;7.68;1.80;;;;;;;19.01;64.17;100350.53;4852556;29;20104;-83
2022/10/03 12:53:55;;;;;;;14.13;2.15;;;;;;;18.93;64.89;100356.03;4853535;29;20083;-82
2022/10/03 12:56:36;;;;;;;3.95;1.90;;;;;;;18.86;64.57;100338.75;4856905;29;20635;-77
2022/10/03 12:59:07;;;;;;;5.30;1.60;;;;;;;18.89;64.49;100361.03;4856655;29;20084;-82
2022/10/03 13:01:51;;;;;;;4.30;1.88;;;;;;;18.86;64.37;100346.91;4868756;29;20053;-83
2022/10/03 13:04:41;;;;;;;9.25;2.17;;;;;;;18.57;63.92;100325.88;4866765;29;20049;-79